^^
N3UVR's Backyard Weather Station Historical Data
 
Daily Summary for January 22, 2021 Units:  English    Metric   Both
Daily Weekly Monthly Yearly
  Current: High: Low: Average:
Temperature: 33.3 °F 34 °F 26.2 °F 29.6 °F
Dew Point: 23.3 °F 25 °F 22.6 °F 23.7 °F
Humidity: 66% 88% 65% 79%
Wind Speed: 1.2mph 5.6mph 0mph 0.3mph
Wind Gust: 10.1mph 14.1mph - -
WindWSW - - WNW
Pressure: 29.75 in 29.76 in 29.64 in -
Precipitation: 0.00 in      
 
 
Tabular Data for January 22, 2021
Time Temperature Dew Point Pressure Wind Wind Speed Wind Gust Humidity Rainfall Rate (Hourly) solar
00:04 26.2 °F 22.8 °F 29.64 in Calm     87% 0.00 in 0 W/m2
00:09 26.3 °F 22.9 °F 29.64 in Calm     87% 0.00 in 0 W/m2
00:14 26.4 °F 23 °F 29.64 in Calm     87% 0.00 in 0 W/m2
00:19 26.4 °F 23 °F 29.64 in Calm     87% 0.00 in 0 W/m2
00:24 26.6 °F 23.2 °F 29.64 in Calm     87% 0.00 in 0 W/m2
00:29 26.8 °F 23.4 °F 29.64 in Calm     87% 0.00 in 0 W/m2
00:34 26.8 °F 23.2 °F 29.64 in Calm     86.2% 0.00 in 0 W/m2
00:39 26.8 °F 23.2 °F 29.64 in Calm     86% 0.00 in 0 W/m2
00:44 27 °F 23.4 °F 29.64 in Calm     86% 0.00 in 0 W/m2
00:49 27 °F 23.4 °F 29.64 in Calm     86% 0.00 in 0 W/m2
00:54 27.1 °F 23.5 °F 29.64 in Calm     86% 0.00 in 0 W/m2
00:59 27.1 °F 23.5 °F 29.64 in Calm     86.2% 0.00 in 0 W/m2
01:04 27.1 °F 23.5 °F 29.64 in Calm     86% 0.00 in 0 W/m2
01:09 27.1 °F 23.5 °F 29.64 in Calm     86% 0.00 in 0 W/m2
01:14 27.3 °F 23.7 °F 29.64 in Calm     86% 0.00 in 0 W/m2
01:19 27.3 °F 23.9 °F 29.65 in Calm     86.9% 0.00 in 0 W/m2
01:24 27.3 °F 23.9 °F 29.65 in Calm     87% 0.00 in 0 W/m2
01:29 27.5 °F 24.1 °F 29.65 in Calm     87% 0.00 in 0 W/m2
01:34 27.5 °F 24 °F 29.65 in Calm     86.6% 0.00 in 0 W/m2
01:39 27.5 °F 24 °F 29.65 in Calm     86.3% 0.00 in 0 W/m2
01:44 27.5 °F 23.9 °F 29.65 in Calm     86% 0.00 in 0 W/m2
01:49 27.5 °F 23.9 °F 29.65 in Calm     86% 0.00 in 0 W/m2
01:54 27.5 °F 24.1 °F 29.66 in Calm     87% 0.00 in 0 W/m2
01:59 27.5 °F 24.1 °F 29.66 in Calm     87% 0.00 in 0 W/m2
02:04 27.5 °F 24.1 °F 29.66 in Calm     87% 0.00 in 0 W/m2
02:09 27.5 °F 24.1 °F 29.66 in Calm     87% 0.00 in 0 W/m2
02:14 27.5 °F 24.1 °F 29.66 in Calm     87% 0.00 in 0 W/m2
02:19 27.3 °F 23.9 °F 29.66 in Calm     87% 0.00 in 0 W/m2
02:24 27.3 °F 23.9 °F 29.66 in Calm     87% 0.00 in 0 W/m2
02:29 27.2 °F 23.6 °F 29.66 in Calm     86.2% 0.00 in 0 W/m2
02:34 27.1 °F 23.6 °F 29.66 in Calm     86.5% 0.00 in 0 W/m2
02:39 27.1 °F 23.7 °F 29.66 in Calm     86.9% 0.00 in 0 W/m2
02:44 27 °F 23.6 °F 29.66 in Calm     87% 0.00 in 0 W/m2
02:49 27 °F 23.8 °F 29.66 in Calm     87.6% 0.00 in 0 W/m2
02:54 27 °F 23.9 °F 29.67 in Calm     87.9% 0.00 in 0 W/m2
02:59 27 °F 24 °F 29.67 in Calm     88% 0.00 in 0 W/m2
03:04 27.1 °F 24.1 °F 29.67 in Calm     88% 0.00 in 0 W/m2
03:09 27.1 °F 24.1 °F 29.67 in Calm     88% 0.00 in 0 W/m2
03:14 27.1 °F 24.1 °F 29.67 in Calm     88% 0.00 in 0 W/m2
03:19 27.1 °F 24.1 °F 29.67 in Calm     88% 0.00 in 0 W/m2
03:24 27.3 °F 24.3 °F 29.67 in Calm     88% 0.00 in 0 W/m2
03:29 27.3 °F 24.3 °F 29.67 in West 0.2 mph 3 mph 88% 0.00 in 0 W/m2
03:34 27.5 °F 24.1 °F 29.67 in NW 0.4 mph 4 mph 87% 0.00 in 0 W/m2
03:39 27.7 °F 24.3 °F 29.67 in Calm     87% 0.00 in 0 W/m2
03:44 28 °F 24.6 °F 29.67 in Calm     87% 0.00 in 0 W/m2
03:49 28.3 °F 24.7 °F 29.67 in Calm     86.1% 0.00 in 0 W/m2
03:54 28.6 °F 25 °F 29.67 in Calm     86% 0.00 in 0 W/m2
03:59 28.6 °F 25 °F 29.68 in Calm     86% 0.00 in 0 W/m2
04:04 28.8 °F 24.8 °F 29.68 in Calm     85.1% 0.00 in 0 W/m2
04:09 28.8 °F 24.8 °F 29.67 in Calm     85% 0.00 in 0 W/m2
04:14 28.8 °F 24.8 °F 29.67 in Calm     85% 0.00 in 0 W/m2
04:19 28.8 °F 24.6 °F 29.67 in Calm     84.1% 0.00 in 0 W/m2
04:24 28.8 °F 24.6 °F 29.67 in Calm     84% 0.00 in 0 W/m2
04:29 28.8 °F 24.6 °F 29.67 in Calm     84% 0.00 in 0 W/m2
04:34 28.8 °F 24.6 °F 29.67 in Calm     84% 0.00 in 0 W/m2
04:39 28.8 °F 24.6 °F 29.67 in Calm     84% 0.00 in 0 W/m2
04:44 28.8 °F 24.5 °F 29.68 in Calm     83.6% 0.00 in 0 W/m2
04:49 28.8 °F 24.3 °F 29.68 in Calm     83% 0.00 in 0 W/m2
04:54 28.8 °F 24.3 °F 29.68 in Calm     83% 0.00 in 0 W/m2
04:59 28.8 °F 24.3 °F 29.68 in Calm     83% 0.00 in 0 W/m2
05:04 28.9 °F 24.2 °F 29.68 in Calm     82.4% 0.00 in 0 W/m2
05:09 29.1 °F 24.3 °F 29.68 in Calm     82% 0.00 in 0 W/m2
05:14 29.1 °F 24.2 °F 29.68 in Calm     81.5% 0.00 in 0 W/m2
05:19 29.1 °F 24.1 °F 29.68 in Calm     81% 0.00 in 0 W/m2
05:24 29.3 °F 24.3 °F 29.68 in Calm     81% 0.00 in 0 W/m2
05:29 29.3 °F 24.2 °F 29.68 in Calm     80.8% 0.00 in 0 W/m2
05:34 29.5 °F 24.1 °F 29.68 in Calm     80% 0.00 in 0 W/m2
05:39 29.5 °F 23.9 °F 29.68 in Calm     79.5% 0.00 in 0 W/m2
05:44 29.5 °F 23.9 °F 29.68 in Calm     79.5% 0.00 in 0 W/m2
05:49 29.6 °F 24.2 °F 29.68 in Calm     80% 0.00 in 0 W/m2
05:54 29.6 °F 24.2 °F 29.68 in Calm     80% 0.00 in 0 W/m2
05:59 29.5 °F 24.1 °F 29.68 in Calm     80% 0.00 in 0 W/m2
06:04 29.5 °F 24.1 °F 29.68 in Calm     80% 0.00 in 0 W/m2
06:09 29.5 °F 24.1 °F 29.68 in Calm     80% 0.00 in 0 W/m2
06:14 29.4 °F 24 °F 29.68 in Calm     80% 0.00 in 0 W/m2
06:19 29.3 °F 23.9 °F 29.68 in Calm     80% 0.00 in 0 W/m2
06:24 29.2 °F 24.1 °F 29.68 in Calm     80.9% 0.00 in 0 W/m2
06:29 29.1 °F 24.1 °F 29.68 in Calm     81% 0.00 in 0 W/m2
06:34 29.1 °F 24.1 °F 29.68 in Calm     81% 0.00 in 0 W/m2
06:39 29.1 °F 24.1 °F 29.68 in Calm     81% 0.00 in 0 W/m2
06:44 28.9 °F 23.9 °F 29.68 in Calm     81% 0.00 in 0 W/m2
06:49 28.9 °F 24 °F 29.68 in Calm     81.3% 0.00 in 0 W/m2
06:54 28.9 °F 23.9 °F 29.68 in Calm     81.1% 0.00 in 0 W/m2
06:59 28.9 °F 23.8 °F 29.68 in Calm     81% 0.00 in 0 W/m2
07:04 28.8 °F 23.7 °F 29.69 in Calm     81% 0.00 in 0 W/m2
07:09 28.8 °F 23.7 °F 29.69 in Calm     81% 0.00 in 0 W/m2
07:14 28.8 °F 23.6 °F 29.69 in Calm     80.6% 0.00 in 0 W/m2
07:19 28.9 °F 23.5 °F 29.70 in Calm     80% 0.00 in 0 W/m2
07:24 28.9 °F 23.4 °F 29.70 in Calm     79.7% 0.00 in 0 W/m2
07:29 28.9 °F 23.2 °F 29.70 in Calm     79% 0.00 in 0 W/m2
07:34 29 °F 23.1 °F 29.70 in Calm     78% 0.00 in 0 W/m2
07:39 29.2 °F 23 °F 29.70 in Calm     77.3% 0.00 in 0 W/m2
07:44 29.5 °F 22.8 °F 29.70 in Calm     76% 0.00 in 7 W/m2
07:49 29.8 °F 22.6 °F 29.70 in WNW 0.4 mph 4 mph 74.1% 0.00 in 14 W/m2
07:54 30.1 °F 22.6 °F 29.71 in Calm     73% 0.00 in 21 W/m2
07:59 30.6 °F 22.6 °F 29.71 in Calm     72.1% 0.00 in 26 W/m2
08:04 30.7 °F 22.6 °F 29.71 in West 0.3 mph 3 mph 71.3% 0.00 in 28 W/m2
08:09 30.9 °F 22.6 °F 29.71 in WNW 0.3 mph 6 mph 71% 0.00 in 33 W/m2
08:14 31.1 °F 22.7 °F 29.72 in NW 0.1 mph 6 mph 70.7% 0.00 in 37 W/m2
08:19 31.2 °F 22.9 °F 29.72 in WNW 0.2 mph 4 mph 71% 0.00 in 51 W/m2
08:24 31.3 °F 23 °F 29.72 in Calm   4 mph 71% 0.00 in 53 W/m2
08:29 31.3 °F 23 °F 29.72 in Calm     71% 0.00 in 98 W/m2
08:34 31.5 °F 23.1 °F 29.72 in SW 0.2 mph 2 mph 70.7% 0.00 in 54 W/m2
08:39 31.6 °F 23.1 °F 29.72 in SSE 0.2 mph 4 mph 70.2% 0.00 in 98 W/m2
08:44 31.6 °F 23.2 °F 29.73 in Calm   4 mph 70.5% 0.00 in 211 W/m2
08:49 31.9 °F 23.6 °F 29.73 in WSW 1 mph 7 mph 70.8% 0.00 in 234 W/m2
08:54 32.4 °F 23.6 °F 29.73 in WNW 0.3 mph 5 mph 69.8% 0.00 in 244 W/m2
08:59 32.6 °F 23.8 °F 29.73 in Calm     69.4% 0.00 in 258 W/m2
09:04 33 °F 24 °F 29.73 in WNW 0.9 mph 4 mph 69% 0.00 in 274 W/m2
09:09 33.3 °F 24 °F 29.73 in NW 0.2 mph 7 mph 68.3% 0.00 in 272 W/m2
09:14 33.3 °F 23.9 °F 29.73 in WNW 0.2 mph 7 mph 68% 0.00 in 155 W/m2
09:19 33.3 °F 23.9 °F 29.74 in Calm     68% 0.00 in 118 W/m2
09:24 33.2 °F 24.1 °F 29.74 in Calm     68.6% 0.00 in 105 W/m2
09:29 33.1 °F 23.9 °F 29.74 in Calm     68.5% 0.00 in 120 W/m2
09:34 32.9 °F 23.6 °F 29.74 in Calm     68.1% 0.00 in 134 W/m2
09:39 32.7 °F 23.6 °F 29.75 in West 0.5 mph 7 mph 68.5% 0.00 in 156 W/m2
09:44 32.7 °F 23.6 °F 29.75 in Calm   2 mph 68.5% 0.00 in 169 W/m2
09:49 32.7 °F 23.4 °F 29.75 in WNW 2 mph 10 mph 68.1% 0.00 in 162 W/m2
09:54 32.7 °F 23.2 °F 29.75 in West 3.5 mph 14 mph 67.5% 0.00 in 155 W/m2
09:59 32.7 °F 23.3 °F 29.75 in WNW 0.5 mph 14 mph 67.6% 0.00 in 165 W/m2
10:04 32.7 °F 23.1 °F 29.75 in West 2.2 mph 14.1 mph 67.1% 0.00 in 172 W/m2
10:09 32.8 °F 23.1 °F 29.75 in WNW 1.5 mph 13 mph 67% 0.00 in 179 W/m2
10:14 32.9 °F 23.2 °F 29.75 in WNW 1.7 mph 13 mph 67% 0.00 in 183 W/m2
10:19 33 °F 23.2 °F 29.75 in WNW 5.6 mph 13 mph 66.7% 0.00 in 185 W/m2
10:24 33 °F 22.9 °F 29.75 in WNW 3.9 mph 13 mph 66% 0.00 in 185 W/m2
10:29 33.1 °F 23 °F 29.76 in WNW 0.1 mph 12 mph 66% 0.00 in 202 W/m2
10:34 33.2 °F 23.2 °F 29.76 in West 0.3 mph 12 mph 66.3% 0.00 in 285 W/m2
10:39 33.4 °F 23.4 °F 29.76 in WNW 1.3 mph 10 mph 66.3% 0.00 in 285 W/m2
10:44 33.6 °F 23.5 °F 29.75 in West 0.1 mph 10.1 mph 66% 0.00 in 220 W/m2
10:49 33.6 °F 23.5 °F 29.75 in West 0.6 mph 8 mph 65.9% 0.00 in 190 W/m2
10:54 33.7 °F 23.4 °F 29.75 in NW 0.4 mph 8 mph 65.5% 0.00 in 211 W/m2
10:59 33.9 °F 23.8 °F 29.75 in WNW 1.3 mph 8 mph 66% 0.00 in 243 W/m2
11:04 34 °F 23.5 °F 29.75 in WNW 0.2 mph 8 mph 65% 0.00 in 188 W/m2
11:09 33.8 °F 23.4 °F 29.75 in Calm     65% 0.00 in 183 W/m2
11:14 33.8 °F 23.4 °F 29.76 in Calm     65% 0.00 in 162 W/m2
11:19 33.8 °F 23.5 °F 29.76 in West 1.5 mph 9 mph 65.5% 0.00 in 204 W/m2
11:24 33.6 °F 23.2 °F 29.75 in WNW 3.9 mph 11 mph 65.1% 0.00 in 171 W/m2
11:29 33.6 °F 23.4 °F 29.75 in WNW 1 mph 11 mph 65.5% 0.00 in 163 W/m2
11:34 33.4 °F 23.1 °F 29.75 in WNW 2.1 mph 10 mph 65.3% 0.00 in 144 W/m2
11:39 33.3 °F 23.3 °F 29.75 in WSW 1.2 mph 10.1 mph 66% 0.00 in 125 W/m2
Archbald, PA, USA
Compliments of Weather Underground - 2 mb